createdAt,value
2022-09-23T00:01:37.554Z,100790.91
2022-09-23T00:04:41.477Z,100795.63
2022-09-23T00:07:44.553Z,100799.66
2022-09-23T00:10:47.637Z,100792.41
2022-09-23T00:13:52.766Z,100798.94
2022-09-23T00:16:55.608Z,100787.72
2022-09-23T00:19:58.244Z,100791.88
2022-09-23T00:23:01.419Z,100795.66
2022-09-23T00:26:06.201Z,100788.41
2022-09-23T00:29:09.035Z,100792.16
2022-09-23T00:32:11.543Z,100791.75
2022-09-23T00:35:14.296Z,100785.75
2022-09-23T00:38:17.220Z,100791.88
2022-09-23T00:41:21.334Z,100787.84
2022-09-23T00:44:48.652Z,100782.13
2022-09-23T00:47:54.967Z,100777.53
2022-09-23T00:50:57.522Z,100777.13
2022-09-23T00:54:02.166Z,100781.31
2022-09-23T00:57:05.721Z,100776.31
2022-09-23T01:00:09.197Z,100777.41
2022-09-23T01:03:12.030Z,100773.38
2022-09-23T01:06:14.934Z,100777.09
2022-09-23T01:09:18.253Z,100776.81
2022-09-23T01:12:21.452Z,100779.87
2022-09-23T01:15:39.162Z,100780.13
2022-09-23T01:18:50.680Z,100784.84
2022-09-23T01:21:57.011Z,100773.88
2022-09-23T01:25:11.604Z,100779.13
2022-09-23T01:28:40.876Z,100784.38
2022-09-23T01:31:57.717Z,100777.56
2022-09-23T01:35:15.207Z,100772.69
2022-09-23T01:38:40.327Z,100785.81
2022-09-23T01:42:09.589Z,100781.59
2022-09-23T01:45:19.490Z,100780.03
2022-09-23T01:48:43.168Z,100783.16
2022-09-23T01:51:50.998Z,100775.44
2022-09-23T01:55:02.256Z,100775.66
2022-09-23T01:58:14.674Z,100775.38
2022-09-23T02:01:23.797Z,100771.00
2022-09-23T02:04:47.195Z,100770.25
2022-09-23T02:07:57.783Z,100770.78
2022-09-23T02:11:06.541Z,100771.91
2022-09-23T02:14:35.908Z,100768.72
2022-09-23T02:17:49.634Z,100765.09
2022-09-23T02:20:59.263Z,100764.44
2022-09-23T02:24:19.524Z,100767.25
2022-09-23T02:27:31.280Z,100763.78
2022-09-23T02:30:45.237Z,100768.66
2022-09-23T02:34:09.237Z,100767.12
2022-09-23T02:37:27.317Z,100763.94
2022-09-23T02:40:40.338Z,100765.03
2022-09-23T02:43:51.943Z,100760.03
2022-09-23T02:46:55.097Z,100765.81
2022-09-23T02:49:57.893Z,100762.16
2022-09-23T02:53:01.139Z,100768.38
2022-09-23T02:56:15.536Z,100767.88
2022-09-23T02:59:20.300Z,100775.53
2022-09-23T03:02:49.272Z,100773.03
2022-09-23T03:05:58.941Z,100771.69
2022-09-23T03:09:27.860Z,100768.22
2022-09-23T03:13:00.480Z,100766.78
2022-09-23T03:16:22.500Z,100773.03
2022-09-23T03:19:37.883Z,100762.47
2022-09-23T03:22:46.909Z,100764.84
2022-09-23T03:25:54.051Z,100768.59
2022-09-23T03:28:58.731Z,100771.25
2022-09-23T03:32:01.469Z,100766.63
2022-09-23T03:35:05.886Z,100765.41
2022-09-23T03:38:17.296Z,100774.41
2022-09-23T03:41:28.998Z,100773.38
2022-09-23T03:44:39.692Z,100774.97
2022-09-23T03:47:43.847Z,100777.59
2022-09-23T03:50:46.297Z,100768.56
2022-09-23T03:53:49.396Z,100771.44
2022-09-23T03:56:52.000Z,100763.16
2022-09-23T03:59:55.067Z,100772.06
2022-09-23T04:02:57.527Z,100762.31
2022-09-23T04:06:00.903Z,100770.59
2022-09-23T04:09:03.551Z,100778.56
2022-09-23T04:12:06.923Z,100770.28
2022-09-23T04:15:09.922Z,100770.88
2022-09-23T04:18:12.603Z,100775.69
2022-09-23T04:21:15.488Z,100779.78
2022-09-23T04:24:18.758Z,100780.28
2022-09-23T04:27:21.276Z,100773.81
2022-09-23T04:30:24.000Z,100769.59
2022-09-23T04:33:26.682Z,100780.91
2022-09-23T04:36:30.376Z,100783.72
2022-09-23T04:39:32.794Z,100778.38
2022-09-23T04:42:35.463Z,100782.19
2022-09-23T04:45:37.819Z,100781.59
2022-09-23T04:48:44.069Z,100792.25
2022-09-23T04:51:46.687Z,100777.19
2022-09-23T04:54:49.409Z,100781.50
2022-09-23T04:57:53.752Z,100792.59
2022-09-23T05:01:01.729Z,100792.47
2022-09-23T05:04:11.023Z,100787.53
2022-09-23T05:07:14.008Z,100794.38
2022-09-23T05:10:17.780Z,100799.84
2022-09-23T05:13:20.453Z,100797.78
2022-09-23T05:16:24.349Z,100797.25
2022-09-23T05:19:27.198Z,100799.87
2022-09-23T05:22:30.682Z,100803.47
2022-09-23T05:25:38.097Z,100806.94
2022-09-23T05:28:41.031Z,100815.03
2022-09-23T05:31:43.908Z,100813.00
2022-09-23T05:34:46.674Z,100825.38
2022-09-23T05:37:49.426Z,100818.03
2022-09-23T05:41:00.732Z,100812.12
2022-09-23T05:44:03.741Z,100819.69
2022-09-23T05:47:06.602Z,100825.97
2022-09-23T05:50:10.004Z,100824.75
2022-09-23T05:53:12.462Z,100822.03
2022-09-23T05:56:18.090Z,100817.34
2022-09-23T05:59:20.569Z,100823.06
2022-09-23T06:02:23.633Z,100825.72
2022-09-23T06:05:26.515Z,100820.59
2022-09-23T06:08:29.119Z,100825.22
2022-09-23T06:11:34.190Z,100822.72
2022-09-23T06:14:37.041Z,100815.34
2022-09-23T06:17:39.768Z,100819.66
2022-09-23T06:20:42.268Z,100829.28
2022-09-23T06:23:45.717Z,100825.78
2022-09-23T06:26:48.358Z,100832.47
2022-09-23T06:29:52.535Z,100835.09
2022-09-23T06:32:57.309Z,100827.88
2022-09-23T06:36:01.943Z,100839.25
2022-09-23T06:39:04.860Z,100833.91
2022-09-23T06:42:07.920Z,100845.53
2022-09-23T06:45:13.035Z,100840.19
2022-09-23T06:48:15.735Z,100844.09
2022-09-23T06:51:21.733Z,100846.78
2022-09-23T06:54:25.423Z,100846.25
2022-09-23T06:57:32.863Z,100849.06
2022-09-23T07:00:36.288Z,100848.62
2022-09-23T07:03:39.077Z,100839.97
2022-09-23T07:06:41.922Z,100837.94
2022-09-23T07:09:45.427Z,100843.09
2022-09-23T07:12:48.198Z,100845.62
2022-09-23T07:16:02.151Z,100841.03
2022-09-23T07:19:05.363Z,100845.81
2022-09-23T07:22:07.945Z,100858.78
2022-09-23T07:25:12.198Z,100855.06
2022-09-23T07:28:14.659Z,100852.84
2022-09-23T07:31:29.687Z,100848.66
2022-09-23T07:34:37.307Z,100858.34
2022-09-23T07:37:40.099Z,100852.56
2022-09-23T07:40:42.696Z,100853.91
2022-09-23T07:43:46.964Z,100860.81
2022-09-23T07:46:50.900Z,100852.47
2022-09-23T07:49:54.144Z,100858.34
2022-09-23T07:52:56.766Z,100853.50
2022-09-23T07:55:59.709Z,100855.38
2022-09-23T07:59:05.531Z,100853.66
2022-09-23T08:02:09.750Z,100855.03
2022-09-23T08:05:12.549Z,100857.34
2022-09-23T08:08:16.019Z,100858.75
2022-09-23T08:11:19.172Z,100857.03
2022-09-23T08:14:24.961Z,100853.59
2022-09-23T08:17:27.813Z,100864.09
2022-09-23T08:20:47.351Z,100854.03
2022-09-23T08:23:51.736Z,100854.75
2022-09-23T08:26:55.836Z,100850.78
2022-09-23T08:29:58.593Z,100845.97
2022-09-23T08:33:01.070Z,100853.38
2022-09-23T08:36:04.079Z,100841.03
2022-09-23T08:39:06.864Z,100846.53
2022-09-23T08:42:27.616Z,100844.97
2022-09-23T08:45:30.743Z,100839.91
2022-09-23T08:48:52.529Z,100840.28
2022-09-23T08:51:56.086Z,100836.00
2022-09-23T08:55:01.170Z,100831.31
2022-09-23T08:58:35.212Z,100829.72
2022-09-23T09:01:44.431Z,100823.22
2022-09-23T09:04:58.079Z,100826.31
2022-09-23T09:08:03.752Z,100817.75
2022-09-23T09:11:07.078Z,100823.81
2022-09-23T09:14:30.088Z,100822.25
2022-09-23T09:17:38.869Z,100822.81
2022-09-23T09:21:08.540Z,100817.22
2022-09-23T09:24:33.671Z,100812.81
2022-09-23T09:27:40.733Z,100821.91
2022-09-23T09:30:48.385Z,100811.22
2022-09-23T09:33:59.347Z,100808.47
2022-09-23T09:37:18.812Z,100813.66
2022-09-23T09:40:21.763Z,100805.53
2022-09-23T09:43:24.618Z,100805.56
2022-09-23T09:46:50.511Z,100798.66
2022-09-23T09:50:05.678Z,100804.41
2022-09-23T09:53:28.214Z,100799.87
2022-09-23T09:56:36.262Z,100795.75
2022-09-23T09:59:44.154Z,100788.44
2022-09-23T10:03:14.486Z,100784.97
2022-09-23T10:06:24.426Z,100781.53
2022-09-23T10:09:34.194Z,100777.25
2022-09-23T10:12:43.858Z,100778.41
2022-09-23T10:15:47.289Z,100780.28
2022-09-23T10:18:55.771Z,100776.72
2022-09-23T10:22:09.165Z,100774.72
2022-09-23T10:25:26.746Z,100772.03
2022-09-23T10:28:44.085Z,100779.53
2022-09-23T10:31:46.886Z,100778.16
2022-09-23T10:34:53.223Z,100772.84
2022-09-23T10:38:02.296Z,100775.75
2022-09-23T10:41:30.439Z,100775.75
2022-09-23T10:45:26.496Z,100768.75
2022-09-23T10:49:10.036Z,100770.13
2022-09-23T10:52:22.384Z,100759.69
2022-09-23T10:55:40.651Z,100764.88
2022-09-23T10:59:12.606Z,100761.22
2022-09-23T11:02:23.795Z,100763.19
2022-09-23T11:05:36.443Z,100757.31
2022-09-23T11:09:03.047Z,100761.28
2022-09-23T11:12:14.865Z,100755.28
2022-09-23T11:15:49.408Z,100751.12
2022-09-23T11:19:26.755Z,100751.44
2022-09-23T11:22:53.854Z,100741.75
2022-09-23T11:26:19.026Z,100741.34
2022-09-23T11:29:22.302Z,100733.34
2022-09-23T11:32:31.560Z,100726.66
2022-09-23T11:35:41.650Z,100726.78
2022-09-23T11:38:48.884Z,100722.94
2022-09-23T11:41:59.835Z,100724.47
2022-09-23T11:45:13.019Z,100719.50
2022-09-23T11:48:23.957Z,100710.09
2022-09-23T11:51:32.026Z,100705.53
2022-09-23T11:54:40.131Z,100711.44
2022-09-23T11:57:49.516Z,100701.59
2022-09-23T12:01:01.208Z,100700.56
2022-09-23T12:04:19.580Z,100700.84
2022-09-23T12:07:29.089Z,100708.63
2022-09-23T12:11:00.572Z,100696.03
2022-09-23T12:14:29.443Z,100696.41
2022-09-23T12:17:37.990Z,100691.59
2022-09-23T12:20:43.456Z,100698.66
2022-09-23T12:24:07.672Z,100678.88
2022-09-23T12:27:24.515Z,100682.47
2022-09-23T12:30:32.201Z,100680.31
2022-09-23T12:33:40.065Z,100667.94
2022-09-23T12:36:49.492Z,100672.16
2022-09-23T12:39:52.766Z,100671.25
2022-09-23T12:42:56.247Z,100660.63
2022-09-23T12:46:20.214Z,100656.53
2022-09-23T12:49:25.261Z,100657.87
2022-09-23T12:52:33.603Z,100654.78
2022-09-23T12:55:36.353Z,100657.84
2022-09-23T12:58:42.677Z,100656.63
2022-09-23T13:01:45.804Z,100649.44
2022-09-23T13:05:27.644Z,100641.56
2022-09-23T13:08:34.077Z,100633.03
2022-09-23T13:11:40.382Z,100628.50
2022-09-23T13:14:46.545Z,100630.75
2022-09-23T13:17:49.056Z,100630.37
2022-09-23T13:20:54.932Z,100628.19
2022-09-23T13:24:18.677Z,100629.19
2022-09-23T13:27:31.004Z,100628.94
2022-09-23T13:30:34.635Z,100623.94
2022-09-23T13:33:46.809Z,100621.06
2022-09-23T13:36:49.445Z,100619.72
2022-09-23T13:39:52.104Z,100621.84
2022-09-23T13:43:01.244Z,100611.81
2022-09-23T13:46:10.318Z,100610.94
2022-09-23T13:49:24.680Z,100612.41
2022-09-23T13:52:31.802Z,100608.16
2022-09-23T13:55:39.250Z,100615.56
2022-09-23T13:58:45.088Z,100614.38
2022-09-23T14:02:09.743Z,100610.63
2022-09-23T14:05:24.230Z,100617.69
2022-09-23T14:08:28.314Z,100604.41
2022-09-23T14:11:35.162Z,100606.19
2022-09-23T14:14:40.861Z,100606.87
2022-09-23T14:17:49.530Z,100594.03
2022-09-23T14:20:51.930Z,100591.84
2022-09-23T14:23:55.574Z,100583.31
2022-09-23T14:27:12.063Z,100581.25
2022-09-23T14:30:18.560Z,100578.56
2022-09-23T14:33:39.258Z,100577.50
2022-09-23T14:37:01.564Z,100580.84
2022-09-23T14:40:10.953Z,100575.69
2022-09-23T14:43:23.273Z,100576.06
2022-09-23T14:46:31.385Z,100569.06
2022-09-23T14:49:34.187Z,100573.38
2022-09-23T14:52:36.661Z,100569.47
2022-09-23T14:55:41.494Z,100564.53
2022-09-23T14:58:51.905Z,100565.94
2022-09-23T15:01:54.984Z,100560.38
2022-09-23T15:05:18.260Z,100559.78
2022-09-23T15:08:23.610Z,100562.69
2022-09-23T15:11:26.343Z,100556.91
2022-09-23T15:14:39.751Z,100558.75
2022-09-23T15:17:44.196Z,100558.13
2022-09-23T15:20:52.325Z,100561.03
2022-09-23T15:23:57.554Z,100556.50
2022-09-23T15:27:00.424Z,100555.91
2022-09-23T15:30:17.385Z,100553.81
2022-09-23T15:33:25.048Z,100556.66
2022-09-23T15:36:28.769Z,100554.19
2022-09-23T15:39:36.236Z,100549.63
2022-09-23T15:42:39.725Z,100553.91
2022-09-23T15:46:04.690Z,100540.47
2022-09-23T15:49:16.107Z,100546.63
2022-09-23T15:52:22.718Z,100534.66
2022-09-23T15:55:25.352Z,100541.81
2022-09-23T15:58:28.171Z,100537.47
2022-09-23T16:01:33.225Z,100545.94
2022-09-23T16:04:36.244Z,100544.19
2022-09-23T16:07:38.700Z,100554.28
2022-09-23T16:10:42.910Z,100549.00
2022-09-23T16:13:45.660Z,100551.47
2022-09-23T16:16:48.557Z,100557.59
2022-09-23T16:19:50.974Z,100547.06
2022-09-23T16:22:57.822Z,100549.09
2022-09-23T16:26:13.888Z,100554.47
2022-09-23T16:29:16.874Z,100551.81
2022-09-23T16:32:22.248Z,100547.72
2022-09-23T16:35:27.926Z,100551.72
2022-09-23T16:38:31.967Z,100547.78
2022-09-23T16:41:35.018Z,100554.50
2022-09-23T16:44:41.486Z,100551.31
2022-09-23T16:47:46.452Z,100557.06
2022-09-23T16:50:48.922Z,100553.56
2022-09-23T16:53:51.973Z,100555.59
2022-09-23T16:56:55.152Z,100555.94
2022-09-23T17:00:16.704Z,100557.44
2022-09-23T17:03:37.918Z,100561.06
2022-09-23T17:06:44.555Z,100550.47
2022-09-23T17:09:46.965Z,100552.28
2022-09-23T17:12:50.587Z,100548.41
2022-09-23T17:15:54.011Z,100552.37
2022-09-23T17:18:57.371Z,100536.41
2022-09-23T17:22:00.001Z,100553.16
2022-09-23T17:25:03.814Z,100555.19
2022-09-23T17:28:06.342Z,100554.94
2022-09-23T17:31:09.691Z,100560.50
2022-09-23T17:34:12.232Z,100563.69
2022-09-23T17:37:15.126Z,100560.81
2022-09-23T17:40:18.015Z,100562.22
2022-09-23T17:43:25.060Z,100556.41
2022-09-23T17:46:30.058Z,100565.94
2022-09-23T17:49:35.215Z,100563.69
2022-09-23T17:52:37.809Z,100567.31
2022-09-23T17:55:40.940Z,100570.53
2022-09-23T17:58:44.683Z,100568.53
2022-09-23T18:01:47.452Z,100577.22
2022-09-23T18:04:50.227Z,100571.81
2022-09-23T18:07:52.613Z,100570.03
2022-09-23T18:10:55.425Z,100569.44
2022-09-23T18:14:04.111Z,100565.50
2022-09-23T18:17:06.824Z,100573.00
2022-09-23T18:20:09.913Z,100580.03
2022-09-23T18:23:12.672Z,100576.69
2022-09-23T18:26:16.750Z,100581.69
2022-09-23T18:29:19.727Z,100583.84
2022-09-23T18:32:22.197Z,100581.69
2022-09-23T18:35:25.477Z,100578.56
2022-09-23T18:38:28.156Z,100579.41
2022-09-23T18:41:31.461Z,100583.06
2022-09-23T18:44:33.901Z,100583.38
2022-09-23T18:47:55.331Z,100581.75
2022-09-23T18:50:57.839Z,100585.38
2022-09-23T18:54:02.849Z,100589.53
2022-09-23T18:57:05.323Z,100587.03
2022-09-23T19:00:09.802Z,100589.69
2022-09-23T19:03:12.232Z,100593.28
2022-09-23T19:06:21.149Z,100586.84
2022-09-23T19:09:24.168Z,100584.84
2022-09-23T19:12:27.171Z,100598.59
2022-09-23T19:15:29.676Z,100592.44
2022-09-23T19:18:33.772Z,100587.09
2022-09-23T19:21:37.021Z,100592.38
2022-09-23T19:24:39.849Z,100586.88
2022-09-23T19:27:42.395Z,100590.00
2022-09-23T19:30:45.309Z,100593.09
2022-09-23T19:33:58.425Z,100598.53
2022-09-23T19:37:04.523Z,100594.03
2022-09-23T19:40:07.938Z,100587.53
2022-09-23T19:43:10.785Z,100584.53
2022-09-23T19:46:13.495Z,100586.31
2022-09-23T19:49:19.823Z,100579.31
2022-09-23T19:52:22.797Z,100585.09
2022-09-23T19:55:25.585Z,100588.03
2022-09-23T19:58:28.038Z,100594.50
2022-09-23T20:01:31.989Z,100586.66
2022-09-23T20:04:36.111Z,100594.91
2022-09-23T20:07:41.076Z,100593.22
2022-09-23T20:10:44.360Z,100594.78
2022-09-23T20:13:48.144Z,100591.62
2022-09-23T20:16:51.939Z,100595.28
2022-09-23T20:19:54.334Z,100589.66
2022-09-23T20:22:56.943Z,100589.44
2022-09-23T20:26:19.734Z,100586.19
2022-09-23T20:29:22.499Z,100584.38
2022-09-23T20:32:25.198Z,100581.81
2022-09-23T20:35:33.124Z,100586.44
2022-09-23T20:38:36.623Z,100580.03
2022-09-23T20:41:39.708Z,100589.13
2022-09-23T20:44:43.417Z,100590.78
2022-09-23T20:47:46.225Z,100591.31
2022-09-23T20:50:51.220Z,100595.88
2022-09-23T20:53:54.046Z,100586.56
2022-09-23T20:56:57.119Z,100594.31
2022-09-23T20:59:59.907Z,100593.75
2022-09-23T21:03:02.658Z,100592.31
2022-09-23T21:06:06.816Z,100590.34
2022-09-23T21:09:09.254Z,100595.47
2022-09-23T21:12:11.930Z,100583.44
2022-09-23T21:15:14.359Z,100590.91
2022-09-23T21:18:23.228Z,100589.00
2022-09-23T21:21:26.021Z,100591.84
2022-09-23T21:25:12.137Z,100585.31
2022-09-23T21:27:54.111Z,100592.66
2022-09-23T21:31:05.746Z,100593.00
2022-09-23T21:34:11.190Z,100591.56
2022-09-23T21:37:14.073Z,100593.59
2022-09-23T21:40:35.071Z,100597.66
2022-09-23T21:43:40.429Z,100594.50
2022-09-23T21:46:43.329Z,100591.69
2022-09-23T21:49:50.610Z,100597.28
2022-09-23T21:52:53.488Z,100598.16
2022-09-23T21:56:07.002Z,100602.50
2022-09-23T21:59:10.052Z,100605.53
2022-09-23T22:02:12.719Z,100607.19
2022-09-23T22:05:15.457Z,100608.06
2022-09-23T22:08:17.822Z,100614.06
2022-09-23T22:11:41.058Z,100609.87
2022-09-23T22:14:43.607Z,100603.63
2022-09-23T22:17:48.078Z,100598.78
2022-09-23T22:20:50.742Z,100603.53
2022-09-23T22:23:54.887Z,100600.72
2022-09-23T22:26:57.330Z,100601.84
2022-09-23T22:30:18.828Z,100601.69
2022-09-23T22:33:22.023Z,100606.69
2022-09-23T22:36:24.886Z,100617.66
2022-09-23T22:39:29.738Z,100609.03
2022-09-23T22:42:37.849Z,100602.69
2022-09-23T22:45:49.548Z,100609.66
2022-09-23T22:48:53.244Z,100613.69
2022-09-23T22:51:55.819Z,100607.69
2022-09-23T22:54:58.593Z,100604.81
2022-09-23T22:58:15.359Z,100600.75
2022-09-23T23:01:23.791Z,100605.59
2022-09-23T23:04:27.006Z,100603.81
2022-09-23T23:07:29.754Z,100605.78
2022-09-23T23:10:32.565Z,100598.53
2022-09-23T23:13:35.667Z,100600.75
2022-09-23T23:16:38.990Z,100606.19
2022-09-23T23:19:41.753Z,100600.47
2022-09-23T23:22:44.247Z,100604.62
2022-09-23T23:25:46.969Z,100603.53
2022-09-23T23:28:51.583Z,100597.97
2022-09-23T23:31:54.430Z,100602.28
2022-09-23T23:34:56.965Z,100604.09
2022-09-23T23:37:59.703Z,100597.56
2022-09-23T23:41:03.223Z,100596.31
2022-09-23T23:44:07.049Z,100592.59
2022-09-23T23:47:09.518Z,100589.37
2022-09-23T23:50:12.270Z,100592.72
2022-09-23T23:53:14.722Z,100601.59
2022-09-23T23:56:20.548Z,100594.50
2022-09-23T23:59:23.066Z,100598.28
